^^
Station Historical Data
Daily Summary for August 16, 2017 Units:  English    Metric   Both
« Previous Day
Next Day »
Daily Weekly Monthly Yearly Custom
  High: Low: Average:
Temperature: 84.4 °F 67.9 °F 75.2 °F
Dew Point: 69.0 °F 62.9 °F 66.3 °F
Humidity: 98% 51% 76%
Wind Speed: 6.0mph 0.0mph 1mph
Wind Gust: 12.0mph - -
Wind- - WSW
Pressure: 30.02 in 29.90 in -
Precipitation: 0.01 in    
Historical Graphs
 
 
Tabular Data for August 16, 2017
Time Temperature Dew Point Pressure Wind Wind Speed Wind Gust Humidity Rainfall Rate (Hourly) Conditions
00:00 68.8 °F 67.9 °F 29.91 in Calm     97% 0.00 in RA
00:15 68.4 °F 67.5 °F 29.90 in Calm     97% 0.00 in SCT
00:30 68.5 °F 67.6 °F 29.91 in Calm     97% 0.00 in SCT
00:45 68.5 °F 67.6 °F 29.91 in Calm     97% 0.00 in SCT
01:00 68.9 °F 68.0 °F 29.91 in Calm   1.0 mph 97% 0.00 in SCT
02:15 69.9 °F 69.0 °F 29.91 in SSW 3.0 mph 7.0 mph 97% 0.00 in CLR
02:45 69.7 °F 68.8 °F 29.91 in Calm   6.0 mph 97% 0.00 in CLR
03:00 69.3 °F 68.4 °F 29.91 in SW 1.0 mph 6.0 mph 97% 0.00 in CLR
03:15 69.1 °F 68.2 °F 29.92 in SSW 1.0 mph 7.0 mph 97% 0.00 in BKN
03:30 69.0 °F 68.1 °F 29.91 in SW 3.0 mph 6.0 mph 97% 0.00 in BKN
03:45 68.9 °F 68.0 °F 29.91 in Calm   4.0 mph 97% 0.00 in BKN
04:00 68.9 °F 68.0 °F 29.91 in Calm   4.0 mph 97% 0.00 in BKN
04:15 68.9 °F 68.3 °F 29.91 in Calm   3.0 mph 98% 0.00 in BKN
04:30 69.0 °F 68.4 °F 29.92 in SW 1.0 mph 3.0 mph 98% 0.00 in BKN
04:45 68.9 °F 68.3 °F 29.92 in SSW 1.0 mph 3.0 mph 98% 0.00 in BKN
05:15 68.7 °F 68.1 °F 29.93 in Calm   3.0 mph 98% 0.00 in SCT
05:30 68.4 °F 67.8 °F 29.93 in Calm   1.0 mph 98% 0.00 in SCT
05:45 68.3 °F 67.7 °F 29.94 in Calm     98% 0.00 in SCT
06:00 67.9 °F 67.3 °F 29.95 in Calm     98% 0.00 in SCT
06:15 68.0 °F 67.4 °F 29.95 in Calm   1.0 mph 98% 0.00 in BKN
06:30 67.9 °F 67.3 °F 29.95 in Calm   1.0 mph 98% 0.01 in RA
06:45 68.0 °F 67.4 °F 29.95 in Calm   1.0 mph 98% 0.00 in BKN
07:00 67.9 °F 67.3 °F 29.95 in Calm   1.0 mph 98% 0.00 in BKN
07:15 68.0 °F 67.4 °F 29.96 in Calm   1.0 mph 98% 0.00 in FEW
07:30 68.5 °F 67.9 °F 29.96 in Calm   3.0 mph 98% 0.00 in FEW
07:45 68.6 °F 68.0 °F 29.95 in Calm   3.0 mph 98% 0.00 in FEW
08:00 68.4 °F 67.5 °F 29.96 in Calm   6.0 mph 97% 0.00 in FEW
08:15 68.6 °F 67.4 °F 29.97 in NNW 1.0 mph 5.0 mph 96% 0.00 in FEW
08:30 69.9 °F 67.5 °F 29.97 in NW 1.0 mph 6.0 mph 92% 0.00 in FEW
08:45 71.1 °F 67.4 °F 29.97 in WNW 2.0 mph 6.0 mph 88% 0.00 in FEW
09:00 72.0 °F 67.3 °F 29.96 in NNW 1.0 mph 8.0 mph 85% 0.00 in FEW
09:15 73.0 °F 67.2 °F 29.97 in North 2.0 mph 7.0 mph 82% 0.00 in CLR
09:30 73.1 °F 67.3 °F 29.97 in NNW 2.0 mph 10.0 mph 82% 0.00 in CLR
09:45 74.0 °F 67.0 °F 29.97 in North 1.0 mph 8.0 mph 79% 0.00 in CLR
10:00 74.4 °F 66.7 °F 29.97 in NNW 3.0 mph 8.0 mph 77% 0.00 in CLR
10:15 75.3 °F 67.3 °F 29.97 in NW 2.0 mph 9.0 mph 76% 0.00 in CLR
10:30 76.0 °F 67.1 °F 29.97 in NNW 2.0 mph 9.0 mph 74% 0.00 in CLR
10:45 77.2 °F 67.1 °F 29.98 in NW 2.0 mph 9.0 mph 71% 0.00 in CLR
11:00 77.6 °F 67.0 °F 29.98 in NW 1.0 mph 8.0 mph 70% 0.00 in CLR
11:15 78.5 °F 67.0 °F 29.98 in Calm   8.0 mph 68% 0.00 in FEW
11:30 79.0 °F 66.2 °F 29.97 in NNW 1.0 mph 9.0 mph 65% 0.00 in FEW
11:45 79.0 °F 65.8 °F 29.97 in WNW 2.0 mph 9.0 mph 64% 0.00 in FEW
12:00 79.3 °F 66.0 °F 29.97 in NNE 3.0 mph 9.0 mph 64% 0.00 in FEW
12:15 79.4 °F 66.2 °F 29.98 in NNE 3.0 mph 9.0 mph 64% 0.00 in FEW
12:30 80.1 °F 64.5 °F 29.97 in NNW 6.0 mph 10.0 mph 59% 0.00 in FEW
12:45 80.5 °F 64.9 °F 29.97 in NE 2.0 mph 12.0 mph 59% 0.00 in FEW
13:00 80.8 °F 65.6 °F 29.97 in Calm   8.0 mph 60% 0.00 in FEW
13:15 81.1 °F 64.9 °F 29.97 in NW 5.0 mph 9.0 mph 58% 0.00 in FEW
13:30 82.0 °F 66.3 °F 29.96 in NNE 2.0 mph 7.0 mph 59% 0.00 in FEW
13:45 81.4 °F 64.7 °F 29.96 in NNW 2.0 mph 8.0 mph 57% 0.00 in FEW
14:00 80.8 °F 64.6 °F 29.96 in NNE 2.0 mph 10.0 mph 58% 0.00 in FEW
14:15 82.2 °F 66.0 °F 29.96 in NNW 1.0 mph 8.0 mph 58% 0.00 in SCT
14:30 82.5 °F 64.7 °F 29.96 in North 3.0 mph 10.0 mph 55% 0.00 in SCT
14:45 82.7 °F 64.9 °F 29.97 in North 2.0 mph 10.0 mph 55% 0.00 in SCT
15:00 83.2 °F 65.4 °F 29.97 in WNW 2.0 mph 7.0 mph 55% 0.00 in SCT
15:15 83.7 °F 66.3 °F 29.96 in WNW 2.0 mph 8.0 mph 56% 0.00 in SCT
15:30 83.3 °F 64.4 °F 29.96 in WNW 2.0 mph 9.0 mph 53% 0.00 in SCT
15:45 83.3 °F 66.0 °F 29.97 in WNW 2.0 mph 6.0 mph 56% 0.00 in SCT
16:00 83.0 °F 67.2 °F 29.97 in Calm   5.0 mph 59% 0.00 in SCT
16:15 82.7 °F 65.4 °F 29.96 in NNW 1.0 mph 7.0 mph 56% 0.00 in BKN
16:30 83.9 °F 65.4 °F 29.96 in WNW 1.0 mph 6.0 mph 54% 0.00 in BKN
16:45 83.2 °F 64.2 °F 29.96 in NE 3.0 mph 8.0 mph 53% 0.00 in BKN
17:01 83.2 °F 65.4 °F 29.96 in NNE 1.0 mph 5.0 mph 55% 0.00 in BKN
17:15 83.3 °F 63.2 °F 29.96 in NNW 1.0 mph 6.0 mph 51% 0.00 in BKN
17:30 83.4 °F 64.5 °F 29.96 in Calm   5.0 mph 53% 0.00 in BKN
17:45 83.6 °F 64.1 °F 29.96 in WSW 3.0 mph 5.0 mph 52% 0.00 in BKN
18:00 84.2 °F 64.1 °F 29.96 in WSW 2.0 mph 4.0 mph 51% 0.00 in BKN
18:15 83.9 °F 63.9 °F 29.96 in WNW 1.0 mph 5.0 mph 51% 0.00 in SCT
18:30 83.2 °F 64.3 °F 29.96 in NE 1.0 mph 3.0 mph 53% 0.00 in SCT
18:45 83.9 °F 64.4 °F 29.96 in Calm   2.0 mph 52% 0.00 in SCT
19:00 84.4 °F 65.9 °F 29.97 in Calm   1.0 mph 54% 0.00 in SCT
19:15 82.7 °F 66.9 °F 29.97 in Calm     59% 0.00 in SCT
19:30 80.1 °F 66.3 °F 29.97 in Calm     63% 0.00 in SCT
19:45 78.4 °F 65.6 °F 29.97 in Calm     65% 0.00 in SCT
20:00 76.8 °F 65.0 °F 29.98 in Calm     67% 0.00 in SCT
20:15 75.9 °F 65.4 °F 29.98 in Calm     70% 0.00 in FEW
20:30 75.3 °F 65.7 °F 29.98 in Calm     72% 0.00 in FEW
20:45 74.5 °F 66.0 °F 29.99 in Calm     75% 0.00 in FEW
21:00 73.5 °F 66.2 °F 29.99 in Calm     78% 0.00 in FEW
21:15 73.4 °F 64.2 °F 30.00 in Calm   1.0 mph 73% 0.00 in SCT
21:45 71.8 °F 65.3 °F 30.00 in Calm     80% 0.00 in SCT
22:00 70.8 °F 64.7 °F 30.00 in Calm     81% 0.00 in SCT
22:15 71.3 °F 64.5 °F 30.01 in Calm   1.0 mph 79% 0.00 in FEW
22:30 71.6 °F 65.1 °F 30.01 in Calm   3.0 mph 80% 0.00 in FEW
22:45 71.3 °F 65.5 °F 30.01 in Calm   1.0 mph 82% 0.00 in FEW
23:00 70.9 °F 65.2 °F 30.02 in Calm   1.0 mph 82% 0.00 in FEW
23:15 70.1 °F 64.7 °F 30.02 in Calm     83% 0.00 in CLR
23:30 69.9 °F 63.5 °F 30.02 in Calm     80% 0.00 in CLR
23:45 69.7 °F 62.9 °F 30.02 in Calm   1.0 mph 79% 0.00 in CLR
TarryTown NY Weather
Compliments of Weather Underground - 1.5 mb